Time;durP1;ratioP1;P1;durP2;ratioP2;P2;SDS_P1;SDS_P2;PMS_P1;PMS_P2;Temp;Humidity;BMP_temperature;BMP_pressure;BME280_temperature;BME280_humidity;BME280_pressure;Samples;Min_cycle;Max_cycle;Signal;HPM_P1;HPM_P2
2022/02/06 00:00:39;;;;;;;10.55;5.62;;;;;;;;;;1759567;80;21605;-72
2022/02/06 00:03:05;;;;;;;10.45;4.72;;;;;;;;;;1760757;80;20956;-71
2022/02/06 00:05:31;;;;;;;13.62;6.40;;;;;;;;;;1768253;80;21006;-71
2022/02/06 00:07:58;;;;;;;11.93;6.05;;;;;;;;;;1761737;81;21026;-70
2022/02/06 00:10:24;;;;;;;8.45;4.65;;;;;;;;;;1761337;81;21058;-71
2022/02/06 00:12:50;;;;;;;9.05;5.30;;;;;;;;;;1761302;81;22036;-72
2022/02/06 00:15:18;;;;;;;9.35;5.03;;;;;;;;;;1761048;80;21049;-71
2022/02/06 00:17:44;;;;;;;7.72;4.08;;;;;;;;;;1756795;81;20982;-71
2022/02/06 00:20:10;;;;;;;10.85;4.50;;;;;;;;;;1760139;81;21058;-72
2022/02/06 00:22:41;;;;;;;7.58;3.67;;;;;;;;;;1762533;80;21043;-72
2022/02/06 00:33:04;;;;;;;10.08;5.20;;;;;;;;;;1758179;81;21556;-71
2022/02/06 00:38:33;;;;;;;7.87;4.75;;;;;;;;;;1764018;80;21530;-71
2022/02/06 00:43:24;;;;;;;6.00;3.27;;;;;;;;;;1752567;80;21037;-72
2022/02/06 00:45:50;;;;;;;11.57;5.22;;;;;;;;;;1760115;81;21043;-72
2022/02/06 00:48:23;;;;;;;10.15;5.72;;;;;;;;;;1789739;80;21524;-71
2022/02/06 00:50:51;;;;;;;13.13;6.30;;;;;;;;;;1759189;80;21043;-71
2022/02/06 00:53:18;;;;;;;11.30;6.22;;;;;;;;;;1761539;80;20960;-71
2022/02/06 00:55:44;;;;;;;10.35;4.62;;;;;;;;;;1761666;80;22170;-71
2022/02/06 00:58:10;;;;;;;9.20;5.20;;;;;;;;;;1778108;80;21555;-71
2022/02/06 01:00:36;;;;;;;9.98;5.67;;;;;;;;;;1773000;80;21126;-70
2022/02/06 01:03:02;;;;;;;8.63;4.03;;;;;;;;;;1776588;80;21000;-71
2022/02/06 01:05:28;;;;;;;8.20;4.55;;;;;;;;;;1777340;80;21047;-71
2022/02/06 01:07:55;;;;;;;8.25;4.37;;;;;;;;;;1776505;80;21526;-72
2022/02/06 01:10:23;;;;;;;11.45;3.80;;;;;;;;;;1770766;80;21052;-72
2022/02/06 01:12:56;;;;;;;9.18;4.65;;;;;;;;;;1777662;80;21022;-71
2022/02/06 01:15:22;;;;;;;9.33;4.28;;;;;;;;;;1776812;80;21060;-71
2022/02/06 01:17:52;;;;;;;7.62;4.15;;;;;;;;;;1775383;80;21478;-70
2022/02/06 01:20:18;;;;;;;7.12;4.10;;;;;;;;;;1770367;80;21360;-71
2022/02/06 01:22:49;;;;;;;8.20;4.55;;;;;;;;;;1775024;80;21003;-70
2022/02/06 01:25:15;;;;;;;11.75;6.47;;;;;;;;;;1771128;80;22064;-71
2022/02/06 01:27:44;;;;;;;8.88;4.25;;;;;;;;;;1771945;80;20952;-71
2022/02/06 01:30:19;;;;;;;11.33;5.35;;;;;;;;;;1774811;80;21026;-71
2022/02/06 01:32:49;;;;;;;10.88;5.47;;;;;;;;;;1776495;80;20993;-70
2022/02/06 01:35:13;;;;;;;10.50;3.80;;;;;;;;;;1774219;80;21047;-71
2022/02/06 01:37:43;;;;;;;8.35;4.80;;;;;;;;;;1774080;80;21012;-69
2022/02/06 02:04:06;;;;;;;8.33;4.40;;;;;;;;;;1709004;79;74662;-73
2022/02/06 02:17:38;;;;;;;9.63;4.80;;;;;;;;;;1704821;83;21049;-73
2022/02/06 02:48:27;;;;;;;8.08;4.50;;;;;;;;;;1755228;80;21437;-74
2022/02/06 02:50:59;;;;;;;8.38;4.28;;;;;;;;;;1756255;80;21624;-73
2022/02/06 02:58:43;;;;;;;10.68;5.33;;;;;;;;;;1755205;80;21475;-72
2022/02/06 03:03:26;;;;;;;9.05;4.75;;;;;;;;;;1754037;80;21070;-72
2022/02/06 03:05:52;;;;;;;9.28;3.80;;;;;;;;;;1743544;82;20990;-72
2022/02/06 03:08:19;;;;;;;9.73;4.50;;;;;;;;;;1748703;82;21479;-73
2022/02/06 03:10:46;;;;;;;7.78;4.40;;;;;;;;;;1743784;82;21028;-74
2022/02/06 03:13:16;;;;;;;9.38;4.95;;;;;;;;;;1744348;82;21514;-72
2022/02/06 03:15:52;;;;;;;6.62;3.62;;;;;;;;;;1744900;82;21013;-72
2022/02/06 03:18:27;;;;;;;11.15;5.53;;;;;;;;;;1745457;82;21502;-72
2022/02/06 03:20:46;;;;;;;8.83;5.28;;;;;;;;;;1740493;82;21597;-72
2022/02/06 03:23:13;;;;;;;7.95;3.45;;;;;;;;;;1744332;82;20992;-74
2022/02/06 03:25:48;;;;;;;6.97;3.90;;;;;;;;;;1743624;82;21044;-74
2022/02/06 03:28:09;;;;;;;7.72;4.20;;;;;;;;;;1750651;82;21502;-74
2022/02/06 03:30:35;;;;;;;8.13;4.95;;;;;;;;;;1748831;82;21008;-74
2022/02/06 03:33:01;;;;;;;7.80;4.67;;;;;;;;;;1744159;82;20973;-74
2022/02/06 03:35:27;;;;;;;8.95;4.42;;;;;;;;;;1743861;82;20989;-74
2022/02/06 03:37:53;;;;;;;10.98;5.37;;;;;;;;;;1744986;82;20949;-74
2022/02/06 03:40:22;;;;;;;10.10;5.25;;;;;;;;;;1744200;82;21492;-74
2022/02/06 03:43:04;;;;;;;6.92;3.33;;;;;;;;;;1743502;82;21028;-74
2022/02/06 03:45:23;;;;;;;8.55;4.58;;;;;;;;;;1741463;82;20995;-74
2022/02/06 03:48:08;;;;;;;10.88;5.17;;;;;;;;;;1750246;82;20951;-74
2022/02/06 03:50:32;;;;;;;9.08;4.90;;;;;;;;;;1745615;81;21004;-75
2022/02/06 03:52:53;;;;;;;7.90;4.75;;;;;;;;;;1742815;82;21016;-75
2022/02/06 03:55:20;;;;;;;6.80;4.53;;;;;;;;;;1745609;82;20936;-75
2022/02/06 03:57:46;;;;;;;7.35;3.60;;;;;;;;;;1749539;82;20999;-74
2022/02/06 04:00:13;;;;;;;8.20;4.85;;;;;;;;;;1752128;81;21004;-75
2022/02/06 04:02:39;;;;;;;8.58;4.30;;;;;;;;;;1742343;82;21451;-74
2022/02/06 04:05:05;;;;;;;8.53;4.65;;;;;;;;;;1749198;81;21101;-73
2022/02/06 04:07:31;;;;;;;10.25;5.67;;;;;;;;;;1752446;80;21438;-73
2022/02/06 04:09:58;;;;;;;7.42;3.80;;;;;;;;;;1754351;80;21029;-73
2022/02/06 04:12:26;;;;;;;8.33;4.85;;;;;;;;;;1758620;80;21034;-73
2022/02/06 04:15:03;;;;;;;8.13;4.78;;;;;;;;;;1753517;82;20994;-73
2022/02/06 04:17:28;;;;;;;8.60;3.50;;;;;;;;;;1738832;80;21050;-72
2022/02/06 04:19:54;;;;;;;7.92;4.67;;;;;;;;;;1769159;80;21047;-74
2022/02/06 04:22:21;;;;;;;7.45;4.50;;;;;;;;;;1753328;82;21509;-74
2022/02/06 04:24:47;;;;;;;7.90;4.97;;;;;;;;;;1753292;82;21018;-73
2022/02/06 04:27:13;;;;;;;8.80;5.12;;;;;;;;;;1758466;80;21481;-73
2022/02/06 04:29:39;;;;;;;11.28;4.90;;;;;;;;;;1761590;80;20979;-72
2022/02/06 04:32:05;;;;;;;8.20;4.45;;;;;;;;;;1762443;80;21058;-73
2022/02/06 04:34:31;;;;;;;6.42;3.77;;;;;;;;;;1755440;80;21005;-73
2022/02/06 04:37:13;;;;;;;8.30;4.35;;;;;;;;;;1754385;80;21049;-72
2022/02/06 05:20:32;;;;;;;8.35;4.28;;;;;;;;;;1717789;83;21379;-75
2022/02/06 05:22:46;;;;;;;5.92;3.40;;;;;;;;;;1703134;83;21038;-73
2022/02/06 05:25:35;;;;;;;8.58;4.83;;;;;;;;;;1721547;82;21489;-74
2022/02/06 05:28:21;;;;;;;7.50;3.80;;;;;;;;;;1714497;83;21048;-74
2022/02/06 05:30:57;;;;;;;11.95;5.35;;;;;;;;;;1738062;82;20989;-72
2022/02/06 05:32:59;;;;;;;6.70;4.00;;;;;;;;;;1720147;82;21053;-73
2022/02/06 05:35:25;;;;;;;12.45;6.22;;;;;;;;;;1736954;82;20961;-73
2022/02/06 05:37:51;;;;;;;8.75;5.03;;;;;;;;;;1687521;84;21064;-73
2022/02/06 05:40:17;;;;;;;8.25;3.85;;;;;;;;;;1717293;83;21061;-74
2022/02/06 05:42:44;;;;;;;10.72;5.87;;;;;;;;;;1717228;83;20998;-72
2022/02/06 05:45:10;;;;;;;8.75;5.72;;;;;;;;;;1731544;82;21048;-75
2022/02/06 05:47:37;;;;;;;9.28;5.45;;;;;;;;;;1717297;82;21076;-72
2022/02/06 05:50:04;;;;;;;11.70;6.17;;;;;;;;;;1713089;84;21007;-72
2022/02/06 05:52:30;;;;;;;11.78;5.25;;;;;;;;;;1689058;84;21005;-73
2022/02/06 05:54:57;;;;;;;11.38;6.70;;;;;;;;;;1722912;83;21008;-73
2022/02/06 05:57:23;;;;;;;8.98;5.50;;;;;;;;;;1714242;83;21539;-72
2022/02/06 05:59:49;;;;;;;12.18;5.53;;;;;;;;;;1722866;83;21081;-73
2022/02/06 06:02:15;;;;;;;11.65;5.33;;;;;;;;;;1725609;82;21064;-74
2022/02/06 06:04:41;;;;;;;8.75;4.78;;;;;;;;;;1750314;81;21021;-73
2022/02/06 06:07:07;;;;;;;10.70;6.03;;;;;;;;;;1732829;82;21189;-73
2022/02/06 06:09:34;;;;;;;9.20;4.97;;;;;;;;;;1729183;82;21021;-73
2022/02/06 06:12:00;;;;;;;10.75;6.25;;;;;;;;;;1705263;83;21001;-73
2022/02/06 06:14:30;;;;;;;12.93;4.90;;;;;;;;;;1704541;83;21090;-73
2022/02/06 06:16:57;;;;;;;12.70;6.25;;;;;;;;;;1696741;83;21514;-72
2022/02/06 06:19:24;;;;;;;13.98;6.30;;;;;;;;;;1731857;82;21052;-73
2022/02/06 06:21:58;;;;;;;16.55;6.40;;;;;;;;;;1716029;83;21603;-73
2022/02/06 06:24:26;;;;;;;8.65;4.28;;;;;;;;;;1722470;82;21028;-73
2022/02/06 06:26:52;;;;;;;12.80;6.30;;;;;;;;;;1723543;82;22103;-72
2022/02/06 06:29:18;;;;;;;11.90;6.87;;;;;;;;;;1781649;80;21017;-72
2022/02/06 06:31:46;;;;;;;16.07;6.10;;;;;;;;;;1723937;82;21008;-73
2022/02/06 06:34:12;;;;;;;13.13;6.25;;;;;;;;;;1780865;80;21473;-72
2022/02/06 06:36:37;;;;;;;10.18;5.20;;;;;;;;;;1763074;80;20959;-74
2022/02/06 06:39:04;;;;;;;10.35;5.42;;;;;;;;;;1758963;80;21014;-74
2022/02/06 06:41:30;;;;;;;12.15;6.10;;;;;;;;;;1791801;80;21060;-74
2022/02/06 06:43:56;;;;;;;12.82;6.17;;;;;;;;;;1772487;80;20995;-74
2022/02/06 06:46:21;;;;;;;10.88;5.53;;;;;;;;;;1768356;80;21571;-74
2022/02/06 06:48:47;;;;;;;13.43;6.45;;;;;;;;;;1766641;81;20994;-75
2022/02/06 06:51:14;;;;;;;9.25;5.33;;;;;;;;;;1764842;80;21012;-74
2022/02/06 06:53:43;;;;;;;11.83;6.15;;;;;;;;;;1766731;80;21030;-74
2022/02/06 06:56:24;;;;;;;16.10;8.30;;;;;;;;;;1763588;80;21021;-74
2022/02/06 06:58:47;;;;;;;10.40;6.42;;;;;;;;;;1758692;81;21034;-73
2022/02/06 07:03:47;;;;;;;8.35;4.85;;;;;;;;;;1687760;83;21112;-73
2022/02/06 07:06:13;;;;;;;14.00;7.78;;;;;;;;;;1776147;80;21053;-74
2022/02/06 07:08:40;;;;;;;9.78;5.62;;;;;;;;;;1770277;80;21648;-74
2022/02/06 07:11:05;;;;;;;13.85;8.48;;;;;;;;;;1766467;80;21477;-74
2022/02/06 07:13:32;;;;;;;16.32;9.75;;;;;;;;;;1760875;80;21014;-74
2022/02/06 07:15:58;;;;;;;12.68;7.62;;;;;;;;;;1762076;80;21021;-72
2022/02/06 07:18:24;;;;;;;12.50;7.08;;;;;;;;;;1771246;80;21048;-74
2022/02/06 07:20:52;;;;;;;8.90;5.15;;;;;;;;;;1767885;80;21017;-74
2022/02/06 07:23:19;;;;;;;11.03;6.28;;;;;;;;;;1770691;80;20968;-76
2022/02/06 07:25:50;;;;;;;9.35;5.25;;;;;;;;;;1763421;80;21524;-75
2022/02/06 07:28:18;;;;;;;11.25;5.78;;;;;;;;;;1769716;80;20997;-71
2022/02/06 07:30:45;;;;;;;10.88;5.67;;;;;;;;;;1770296;80;20998;-72
2022/02/06 07:33:12;;;;;;;11.48;5.35;;;;;;;;;;1760255;80;21048;-71
2022/02/06 07:35:38;;;;;;;13.88;7.15;;;;;;;;;;1763220;80;21020;-72
2022/02/06 07:38:04;;;;;;;13.05;7.20;;;;;;;;;;1761118;80;21502;-72
2022/02/06 07:40:30;;;;;;;15.63;7.05;;;;;;;;;;1777817;80;21037;-73
2022/02/06 07:42:56;;;;;;;11.95;6.12;;;;;;;;;;1769559;80;20997;-72
2022/02/06 07:45:26;;;;;;;11.88;6.10;;;;;;;;;;1791322;80;21100;-73
2022/02/06 07:47:53;;;;;;;8.83;5.47;;;;;;;;;;1765235;80;21002;-71
2022/02/06 07:50:19;;;;;;;9.88;5.12;;;;;;;;;;1756378;80;21062;-72
2022/02/06 07:52:45;;;;;;;9.48;5.35;;;;;;;;;;1779827;80;20998;-71
2022/02/06 07:55:11;;;;;;;11.00;5.28;;;;;;;;;;1785007;80;21026;-71
2022/02/06 07:57:40;;;;;;;11.85;5.53;;;;;;;;;;1721141;83;21023;-71
2022/02/06 08:00:07;;;;;;;12.28;5.87;;;;;;;;;;1703285;84;20976;-71
2022/02/06 08:02:40;;;;;;;10.00;5.63;;;;;;;;;;1718347;82;21090;-71
2022/02/06 08:05:06;;;;;;;10.90;4.95;;;;;;;;;;1702800;84;20999;-71
2022/02/06 08:07:32;;;;;;;8.40;5.00;;;;;;;;;;1725795;83;21076;-70
2022/02/06 08:10:01;;;;;;;12.50;7.20;;;;;;;;;;1725687;83;21120;-71
2022/02/06 08:12:31;;;;;;;9.80;5.42;;;;;;;;;;1730225;82;21017;-72
2022/02/06 08:14:59;;;;;;;12.15;5.65;;;;;;;;;;1731386;82;21055;-73
2022/02/06 08:17:26;;;;;;;7.87;4.00;;;;;;;;;;1707764;82;20988;-73
2022/02/06 08:19:53;;;;;;;9.48;5.20;;;;;;;;;;1705675;84;21075;-72
2022/02/06 08:22:19;;;;;;;9.88;5.35;;;;;;;;;;1717506;83;21021;-73
2022/02/06 08:24:45;;;;;;;9.28;5.03;;;;;;;;;;1734644;81;21499;-73
2022/02/06 08:27:11;;;;;;;8.93;5.30;;;;;;;;;;1727592;82;21004;-74
2022/02/06 08:29:39;;;;;;;9.05;3.95;;;;;;;;;;1694013;85;21123;-73
2022/02/06 08:32:08;;;;;;;9.33;5.30;;;;;;;;;;1731581;81;21050;-73
2022/02/06 08:34:34;;;;;;;9.83;5.53;;;;;;;;;;1725693;82;21011;-72
2022/02/06 08:37:02;;;;;;;8.28;4.37;;;;;;;;;;1724912;82;21040;-72
2022/02/06 08:39:31;;;;;;;9.83;4.78;;;;;;;;;;1769942;80;21005;-71
2022/02/06 08:41:57;;;;;;;9.50;4.60;;;;;;;;;;1770906;80;21042;-73
2022/02/06 08:44:23;;;;;;;8.50;4.67;;;;;;;;;;1769080;80;20996;-72
2022/02/06 08:46:50;;;;;;;7.87;5.08;;;;;;;;;;1754644;80;21015;-73
2022/02/06 08:49:17;;;;;;;9.95;5.05;;;;;;;;;;1780132;80;20980;-72
2022/02/06 08:51:44;;;;;;;9.75;5.20;;;;;;;;;;1794949;80;20961;-73
2022/02/06 08:54:11;;;;;;;8.15;4.50;;;;;;;;;;1793612;80;21468;-72
2022/02/06 08:56:41;;;;;;;7.22;3.98;;;;;;;;;;1772465;80;20959;-71
2022/02/06 08:59:08;;;;;;;8.70;4.42;;;;;;;;;;1746943;82;21470;-71
2022/02/06 09:01:36;;;;;;;7.53;4.75;;;;;;;;;;1702428;84;21031;-72
2022/02/06 09:04:02;;;;;;;6.75;3.55;;;;;;;;;;1787279;79;21069;-72
2022/02/06 09:06:29;;;;;;;10.98;5.30;;;;;;;;;;1753006;80;21511;-72
2022/02/06 09:08:57;;;;;;;11.03;4.75;;;;;;;;;;1745505;82;21059;-71
2022/02/06 09:11:23;;;;;;;8.03;3.52;;;;;;;;;;1756124;81;21533;-72
2022/02/06 09:13:50;;;;;;;9.03;4.55;;;;;;;;;;1756252;81;22159;-72
2022/02/06 09:16:16;;;;;;;8.20;4.03;;;;;;;;;;1747129;81;20968;-72
2022/02/06 09:18:42;;;;;;;10.53;4.92;;;;;;;;;;1744744;82;21015;-72
2022/02/06 09:21:08;;;;;;;9.35;5.20;;;;;;;;;;1745458;82;20983;-72
2022/02/06 09:23:34;;;;;;;8.70;4.40;;;;;;;;;;1737008;81;20961;-72
2022/02/06 09:26:00;;;;;;;6.90;3.45;;;;;;;;;;1745107;81;21004;-72
2022/02/06 09:28:26;;;;;;;8.30;4.67;;;;;;;;;;1748417;81;20982;-72
2022/02/06 09:30:52;;;;;;;11.05;5.30;;;;;;;;;;1744857;82;21036;-72
2022/02/06 09:35:44;;;;;;;9.43;4.55;;;;;;;;;;1762918;81;21036;-72
2022/02/06 09:38:10;;;;;;;8.33;4.60;;;;;;;;;;1756972;81;21157;-71
2022/02/06 09:40:37;;;;;;;8.35;4.62;;;;;;;;;;1760943;81;21005;-71
2022/02/06 09:43:04;;;;;;;9.08;3.75;;;;;;;;;;1746320;81;20988;-71
2022/02/06 09:45:30;;;;;;;8.48;4.50;;;;;;;;;;1740568;81;21037;-71
2022/02/06 09:47:57;;;;;;;8.98;5.05;;;;;;;;;;1760395;81;21537;-71
2022/02/06 09:50:24;;;;;;;10.58;5.33;;;;;;;;;;1744791;81;21033;-72
2022/02/06 09:52:49;;;;;;;9.45;5.08;;;;;;;;;;1745645;82;21036;-71
2022/02/06 09:55:19;;;;;;;9.80;5.28;;;;;;;;;;1739111;81;20967;-72
2022/02/06 10:00:29;;;;;;;12.30;5.87;;;;;;;;;;1751860;81;20992;-68
2022/02/06 10:03:02;;;;;;;13.03;5.25;;;;;;;;;;1745193;81;21534;-71
2022/02/06 10:05:25;;;;;;;9.75;5.50;;;;;;;;;;1744384;81;21433;-74
2022/02/06 10:07:53;;;;;;;9.53;5.42;;;;;;;;;;1750008;81;21524;-73
2022/02/06 10:10:19;;;;;;;8.50;4.87;;;;;;;;;;1752247;82;21065;-71
2022/02/06 10:12:45;;;;;;;11.90;5.53;;;;;;;;;;1754542;81;21024;-72
2022/02/06 10:15:13;;;;;;;9.53;5.33;;;;;;;;;;1758134;81;21010;-71
2022/02/06 10:17:39;;;;;;;9.83;4.75;;;;;;;;;;1752789;82;21025;-71
2022/02/06 10:20:13;;;;;;;8.43;4.92;;;;;;;;;;1753720;82;21664;-71
2022/02/06 10:22:46;;;;;;;7.97;3.80;;;;;;;;;;1725083;83;21077;-73
2022/02/06 10:25:08;;;;;;;6.85;3.80;;;;;;;;;;1729855;82;21041;-72
2022/02/06 10:27:49;;;;;;;8.15;4.03;;;;;;;;;;1753398;82;21026;-72
2022/02/06 10:30:29;;;;;;;9.10;4.87;;;;;;;;;;1753260;82;21050;-71
2022/02/06 10:32:49;;;;;;;10.58;4.70;;;;;;;;;;1753240;81;21024;-72
2022/02/06 10:35:15;;;;;;;7.15;4.35;;;;;;;;;;1761295;80;21473;-71
2022/02/06 10:37:41;;;;;;;8.53;3.75;;;;;;;;;;1756062;81;20973;-71
2022/02/06 10:40:08;;;;;;;6.75;4.00;;;;;;;;;;1752325;81;21537;-71
2022/02/06 10:42:36;;;;;;;7.75;3.12;;;;;;;;;;1767386;81;20966;-70
2022/02/06 10:45:12;;;;;;;6.92;3.87;;;;;;;;;;1757079;81;20998;-71
2022/02/06 10:47:39;;;;;;;8.08;3.77;;;;;;;;;;1738182;82;21045;-71
2022/02/06 10:50:06;;;;;;;8.23;3.70;;;;;;;;;;1753179;82;21002;-71
2022/02/06 10:52:32;;;;;;;6.20;4.17;;;;;;;;;;1753268;82;21101;-70
2022/02/06 10:55:00;;;;;;;8.33;4.60;;;;;;;;;;1753217;82;21623;-72
2022/02/06 10:57:28;;;;;;;9.65;4.80;;;;;;;;;;1750116;82;21089;-71
2022/02/06 10:59:54;;;;;;;9.78;5.03;;;;;;;;;;1741186;82;21007;-72
2022/02/06 11:02:22;;;;;;;9.75;4.55;;;;;;;;;;1771236;79;20983;-72
2022/02/06 11:04:55;;;;;;;8.58;4.10;;;;;;;;;;1765956;80;21040;-71
2022/02/06 11:07:22;;;;;;;7.65;3.60;;;;;;;;;;1764078;80;21010;-71
2022/02/06 11:09:47;;;;;;;6.92;3.60;;;;;;;;;;1762453;80;21327;-71
2022/02/06 11:12:17;;;;;;;9.28;4.03;;;;;;;;;;1717308;82;21555;-71
2022/02/06 11:14:50;;;;;;;10.60;4.17;;;;;;;;;;1685674;85;21014;-71
2022/02/06 11:17:21;;;;;;;7.87;4.00;;;;;;;;;;1713718;83;21084;-71
2022/02/06 11:19:57;;;;;;;8.38;4.78;;;;;;;;;;1700982;83;20987;-70
2022/02/06 11:22:24;;;;;;;8.15;4.22;;;;;;;;;;1698563;84;21044;-71
2022/02/06 11:24:50;;;;;;;5.25;2.83;;;;;;;;;;1701346;83;21512;-70
2022/02/06 11:27:16;;;;;;;7.20;4.15;;;;;;;;;;1718699;82;21045;-69
2022/02/06 11:29:42;;;;;;;8.65;4.33;;;;;;;;;;1727289;82;22121;-70
2022/02/06 11:32:10;;;;;;;8.85;4.70;;;;;;;;;;1725340;82;21048;-70
2022/02/06 11:34:41;;;;;;;8.03;4.35;;;;;;;;;;1707034;83;21070;-71
2022/02/06 11:44:33;;;;;;;12.18;5.25;;;;;;;;;;1785475;79;23350;-71
2022/02/06 11:47:07;;;;;;;11.18;4.95;;;;;;;;;;1744774;81;21560;-70
2022/02/06 11:49:41;;;;;;;11.05;5.95;;;;;;;;;;1754875;81;21056;-71
2022/02/06 11:52:07;;;;;;;;;;;;;;;;;;1756418;81;21986;-71
2022/02/06 11:54:34;;;;;;;11.03;5.42;;;;;;;;;;1759655;81;20143;-71
2022/02/06 12:00:04;;;;;;;8.38;5.33;;;;;;;;;;1744198;81;21007;-70
2022/02/06 12:02:40;;;;;;;8.20;4.53;;;;;;;;;;1728886;81;21660;-70
2022/02/06 12:05:14;;;;;;;7.25;3.75;;;;;;;;;;1705350;84;21552;-70
2022/02/06 12:07:51;;;;;;;8.80;4.87;;;;;;;;;;1706539;83;21060;-71
2022/02/06 12:10:18;;;;;;;8.80;4.90;;;;;;;;;;1714605;83;21092;-69
2022/02/06 12:12:44;;;;;;;8.93;5.78;;;;;;;;;;1692517;84;21557;-71
2022/02/06 12:15:19;;;;;;;10.63;4.30;;;;;;;;;;1653005;84;21168;-72
2022/02/06 12:18:05;;;;;;;8.48;4.97;;;;;;;;;;1681475;84;21041;-76
2022/02/06 12:20:31;;;;;;;8.58;4.75;;;;;;;;;;1663230;85;21061;-77
2022/02/06 12:22:59;;;;;;;11.68;4.67;;;;;;;;;;1643965;87;21092;-76
2022/02/06 12:25:27;;;;;;;9.33;5.30;;;;;;;;;;1645470;86;21031;-76
2022/02/06 12:28:17;;;;;;;10.60;5.12;;;;;;;;;;1668623;84;21089;-75
2022/02/06 12:30:44;;;;;;;10.55;5.12;;;;;;;;;;1655793;86;21614;-75
2022/02/06 12:33:15;;;;;;;7.78;3.87;;;;;;;;;;1680673;85;21292;-75
2022/02/06 12:38:26;;;;;;;11.80;5.35;;;;;;;;;;1652276;84;21046;-75
2022/02/06 12:40:52;;;;;;;6.20;4.03;;;;;;;;;;1660114;86;21135;-73
2022/02/06 12:43:18;;;;;;;12.00;5.60;;;;;;;;;;1641450;85;21109;-74
2022/02/06 12:45:45;;;;;;;11.38;5.70;;;;;;;;;;1718433;83;21599;-72
2022/02/06 12:48:11;;;;;;;10.95;5.58;;;;;;;;;;1709291;83;21461;-72
2022/02/06 12:50:37;;;;;;;8.53;5.28;;;;;;;;;;1686166;83;21032;-72
2022/02/06 12:53:05;;;;;;;8.35;5.08;;;;;;;;;;1719338;83;21048;-74
2022/02/06 12:55:33;;;;;;;8.35;5.33;;;;;;;;;;1717591;83;21564;-77
2022/02/06 12:57:59;;;;;;;8.78;4.45;;;;;;;;;;1718947;83;22123;-76
2022/02/06 13:00:27;;;;;;;9.43;5.53;;;;;;;;;;1713148;83;21037;-71
2022/02/06 13:02:54;;;;;;;8.18;4.50;;;;;;;;;;1714208;83;21113;-72
2022/02/06 13:05:21;;;;;;;7.50;3.85;;;;;;;;;;1721005;83;21076;-70
2022/02/06 13:07:47;;;;;;;11.43;5.90;;;;;;;;;;1720528;83;21081;-71
2022/02/06 13:10:14;;;;;;;10.23;5.10;;;;;;;;;;1718596;83;21583;-72
2022/02/06 13:12:54;;;;;;;8.98;4.42;;;;;;;;;;1722216;83;21052;-71
2022/02/06 13:15:42;;;;;;;11.80;5.83;;;;;;;;;;1711275;83;21104;-71
2022/02/06 13:20:57;;;;;;;7.47;4.00;;;;;;;;;;1676293;85;21097;-71
2022/02/06 13:23:22;;;;;;;10.30;5.20;;;;;;;;;;1661682;85;21061;-71
2022/02/06 13:28:36;;;;;;;7.83;4.50;;;;;;;;;;1648324;86;21053;-71
2022/02/06 13:38:58;;;;;;;11.08;4.35;;;;;;;;;;1665077;85;21061;-71
2022/02/06 13:41:22;;;;;;;10.20;5.53;;;;;;;;;;1659650;86;21100;-70
2022/02/06 13:43:49;;;;;;;12.23;6.45;;;;;;;;;;1673227;85;21065;-69
2022/02/06 13:46:17;;;;;;;10.25;5.95;;;;;;;;;;1681111;85;21125;-70
2022/02/06 13:48:46;;;;;;;9.53;6.03;;;;;;;;;;1677814;85;21088;-70
2022/02/06 13:51:14;;;;;;;7.92;4.83;;;;;;;;;;1678519;85;21082;-70
2022/02/06 13:53:39;;;;;;;6.35;3.87;;;;;;;;;;1707432;84;21568;-71
2022/02/06 13:56:10;;;;;;;8.18;4.47;;;;;;;;;;1679706;84;20996;-71
2022/02/06 13:58:36;;;;;;;8.30;5.08;;;;;;;;;;1697231;84;21221;-71
2022/02/06 14:01:03;;;;;;;8.15;4.60;;;;;;;;;;1700546;83;21077;-72
2022/02/06 14:03:48;;;;;;;8.80;4.83;;;;;;;;;;1698732;84;21053;-70
2022/02/06 14:06:19;;;;;;;18.55;14.38;;;;;;;;;;1684000;84;21053;-71
2022/02/06 14:09:06;;;;;;;8.95;4.65;;;;;;;;;;1694657;83;21050;-72
2022/02/06 14:11:31;;;;;;;9.18;4.60;;;;;;;;;;1682569;84;21129;-72
2022/02/06 14:14:14;;;;;;;7.80;4.42;;;;;;;;;;1676784;85;21613;-71
2022/02/06 14:16:44;;;;;;;9.68;4.90;;;;;;;;;;1678062;84;21116;-72
2022/02/06 14:19:11;;;;;;;7.55;3.60;;;;;;;;;;1675988;85;21588;-72
2022/02/06 14:21:44;;;;;;;9.48;4.80;;;;;;;;;;1656944;85;21053;-70
2022/02/06 14:24:10;;;;;;;7.08;3.87;;;;;;;;;;1684235;84;21006;-71
2022/02/06 14:26:36;;;;;;;6.97;4.47;;;;;;;;;;1695127;84;21057;-71
2022/02/06 14:29:02;;;;;;;7.70;4.40;;;;;;;;;;1678957;85;21108;-70
2022/02/06 14:31:30;;;;;;;8.68;4.58;;;;;;;;;;1678835;85;21602;-70
2022/02/06 14:34:15;;;;;;;9.98;4.40;;;;;;;;;;1704906;84;21070;-70
2022/02/06 14:36:44;;;;;;;8.98;4.78;;;;;;;;;;1710838;84;21065;-69
2022/02/06 14:39:11;;;;;;;6.58;3.55;;;;;;;;;;1708314;84;21010;-69
2022/02/06 14:41:58;;;;;;;6.45;4.03;;;;;;;;;;1708707;84;21519;-70
2022/02/06 14:44:15;;;;;;;8.75;3.72;;;;;;;;;;1698682;84;21016;-70
2022/02/06 14:46:41;;;;;;;7.80;3.25;;;;;;;;;;1680710;84;21871;-72
2022/02/06 14:49:09;;;;;;;8.40;4.33;;;;;;;;;;1706661;84;21053;-71
2022/02/06 14:51:36;;;;;;;9.20;5.03;;;;;;;;;;1706522;84;21046;-72
2022/02/06 14:54:05;;;;;;;9.30;4.75;;;;;;;;;;1706583;84;21061;-71
2022/02/06 14:56:32;;;;;;;8.60;4.05;;;;;;;;;;1693493;84;21798;-70
2022/02/06 14:58:58;;;;;;;9.43;3.77;;;;;;;;;;1685919;84;21430;-72
2022/02/06 15:01:24;;;;;;;9.60;4.65;;;;;;;;;;1690299;83;21514;-72
2022/02/06 15:03:52;;;;;;;8.25;3.27;;;;;;;;;;1688315;84;21066;-72
2022/02/06 15:06:18;;;;;;;9.70;5.00;;;;;;;;;;1680171;83;21045;-71
2022/02/06 15:08:44;;;;;;;10.72;4.20;;;;;;;;;;1686499;83;21126;-70
2022/02/06 15:11:11;;;;;;;7.40;3.92;;;;;;;;;;1672603;83;21596;-72
2022/02/06 15:13:39;;;;;;;12.63;5.35;;;;;;;;;;1688684;83;21136;-71
2022/02/06 15:16:13;;;;;;;8.70;3.75;;;;;;;;;;1685633;83;21522;-72
2022/02/06 15:18:38;;;;;;;8.33;4.70;;;;;;;;;;1680618;84;21185;-73
2022/02/06 15:21:04;;;;;;;8.38;4.12;;;;;;;;;;1672248;83;21019;-69
2022/02/06 15:23:30;;;;;;;10.85;4.95;;;;;;;;;;1672326;85;21088;-74
2022/02/06 15:25:56;;;;;;;6.75;3.85;;;;;;;;;;1672768;85;21030;-72
2022/02/06 15:28:22;;;;;;;9.65;4.92;;;;;;;;;;1676920;85;21556;-71
2022/02/06 15:30:48;;;;;;;8.18;4.40;;;;;;;;;;1681592;83;21568;-70
2022/02/06 15:33:15;;;;;;;7.17;4.72;;;;;;;;;;1678559;83;21113;-71
2022/02/06 15:35:41;;;;;;;9.15;4.50;;;;;;;;;;1680846;84;21543;-71
2022/02/06 15:38:08;;;;;;;7.80;3.25;;;;;;;;;;1677261;84;21063;-70
2022/02/06 15:40:34;;;;;;;5.72;3.25;;;;;;;;;;1679037;84;20977;-71
2022/02/06 15:43:00;;;;;;;8.38;5.28;;;;;;;;;;1681848;84;21046;-70
2022/02/06 15:45:26;;;;;;;9.85;5.20;;;;;;;;;;1678617;84;21038;-71
2022/02/06 15:47:52;;;;;;;10.25;5.28;;;;;;;;;;1692434;83;21311;-71
2022/02/06 15:50:18;;;;;;;9.75;4.25;;;;;;;;;;1695962;84;20991;-70
2022/02/06 15:52:44;;;;;;;5.85;3.83;;;;;;;;;;1694549;84;21053;-71
2022/02/06 15:55:10;;;;;;;11.90;6.80;;;;;;;;;;1702751;84;21557;-70
2022/02/06 15:57:36;;;;;;;14.20;7.62;;;;;;;;;;1700309;84;21552;-70
2022/02/06 16:00:03;;;;;;;13.05;6.50;;;;;;;;;;1696360;84;21120;-72
2022/02/06 16:02:31;;;;;;;12.18;6.45;;;;;;;;;;1696159;84;21070;-70
2022/02/06 16:04:57;;;;;;;12.37;5.80;;;;;;;;;;1694728;84;21005;-71
2022/02/06 16:07:23;;;;;;;12.07;5.25;;;;;;;;;;1698055;84;21019;-73
2022/02/06 16:09:49;;;;;;;10.82;5.33;;;;;;;;;;1693755;84;21049;-71
2022/02/06 16:12:15;;;;;;;12.00;5.87;;;;;;;;;;1697800;84;21051;-71
2022/02/06 16:14:42;;;;;;;10.82;5.05;;;;;;;;;;1701623;84;21084;-72
2022/02/06 16:17:11;;;;;;;11.20;6.65;;;;;;;;;;1698906;84;21025;-71
2022/02/06 16:19:37;;;;;;;15.00;7.42;;;;;;;;;;1691344;84;21025;-73
2022/02/06 16:22:08;;;;;;;14.07;6.78;;;;;;;;;;1694847;84;21075;-71
2022/02/06 16:24:35;;;;;;;18.82;9.08;;;;;;;;;;1696054;84;21578;-70
2022/02/06 16:27:00;;;;;;;17.70;7.00;;;;;;;;;;1690804;84;21029;-72
2022/02/06 16:29:27;;;;;;;17.77;8.58;;;;;;;;;;1694410;83;21069;-71
2022/02/06 16:31:53;;;;;;;13.95;6.30;;;;;;;;;;1690090;84;21489;-75
2022/02/06 16:34:19;;;;;;;15.88;5.72;;;;;;;;;;1698112;83;21037;-71
2022/02/06 16:36:44;;;;;;;11.95;5.72;;;;;;;;;;1697630;84;21080;-70
2022/02/06 16:39:13;;;;;;;14.55;5.20;;;;;;;;;;1701027;83;21047;-73
2022/02/06 16:41:39;;;;;;;9.25;4.70;;;;;;;;;;1698625;83;21084;-72
2022/02/06 16:44:05;;;;;;;7.55;4.58;;;;;;;;;;1697489;84;21535;-73
2022/02/06 16:46:31;;;;;;;7.22;3.27;;;;;;;;;;1678910;84;21004;-72
2022/02/06 16:48:57;;;;;;;11.38;5.10;;;;;;;;;;1672667;84;21552;-72
2022/02/06 16:51:23;;;;;;;7.20;4.28;;;;;;;;;;1667818;85;21053;-73
2022/02/06 16:53:50;;;;;;;9.53;5.78;;;;;;;;;;1677268;85;21041;-72
2022/02/06 16:56:16;;;;;;;9.05;4.47;;;;;;;;;;1664747;85;21550;-71
2022/02/06 16:58:42;;;;;;;8.85;4.90;;;;;;;;;;1679984;84;21492;-72
2022/02/06 17:01:08;;;;;;;7.92;3.98;;;;;;;;;;1675499;84;21084;-72
2022/02/06 17:03:34;;;;;;;8.68;5.53;;;;;;;;;;1663175;85;21064;-73
2022/02/06 17:06:00;;;;;;;8.70;4.53;;;;;;;;;;1672219;85;21559;-73
2022/02/06 17:08:25;;;;;;;9.63;6.33;;;;;;;;;;1672161;85;20976;-71
2022/02/06 17:10:52;;;;;;;13.43;6.72;;;;;;;;;;1672051;84;21056;-71
2022/02/06 17:13:19;;;;;;;10.53;5.95;;;;;;;;;;1666394;85;21080;-73
2022/02/06 17:15:46;;;;;;;13.28;4.83;;;;;;;;;;1671282;85;21532;-72
2022/02/06 17:18:12;;;;;;;12.88;5.67;;;;;;;;;;1673429;85;21052;-73
2022/02/06 17:20:38;;;;;;;13.15;5.20;;;;;;;;;;1646814;86;21071;-73